Jefferson City, Montana
Current Conditions -  °F | °C
As of 7:53 AM on Thursday 23 Oct 2014 (Local Time) from KHLN Reporting Station
Broken Clouds Broken Clouds  
Wind Chill: 56°   Ceiling: 7000
Heat Index: 56°   Visibility: 10mi
Dew Point: 30°   Wind: 10mph
Humidity: 37%   Direction: 220°SW
Pressure: 29.9"   Gusts: NA
Location:  46.39°N, 112.03°W
Report Text: KHLN 231353Z 22009KT 10SM BKN070 13/M01 A2990 RMK AO2 SLP128 T01331011
Loading
Personal Weather Stations






























Interactive Weather Map
Tropical Storm Tracking
New forecast layout! Learn more

10-Day Weather Forecast

Advertisements
Track Severe Weather on mobile